createdAt,value
2018-08-03T00:01:52.631Z,21.40
2018-08-03T00:04:21.895Z,21.40
2018-08-03T00:06:50.240Z,21.30
2018-08-03T00:09:18.802Z,21.30
2018-08-03T00:11:48.087Z,21.30
2018-08-03T00:14:16.944Z,21.30
2018-08-03T00:16:47.608Z,21.30
2018-08-03T00:19:17.874Z,21.30
2018-08-03T00:21:51.799Z,21.30
2018-08-03T00:24:20.238Z,21.20
2018-08-03T00:26:51.692Z,21.20
2018-08-03T00:29:20.513Z,21.20
2018-08-03T00:31:48.974Z,21.20
2018-08-03T00:34:19.174Z,21.20
2018-08-03T00:36:50.924Z,21.10
2018-08-03T00:39:20.332Z,21.10
2018-08-03T00:42:04.586Z,21.10
2018-08-03T00:44:34.729Z,21.00
2018-08-03T00:47:05.310Z,21.00
2018-08-03T00:49:34.410Z,21.00
2018-08-03T00:52:03.810Z,21.00
2018-08-03T00:54:32.612Z,20.90
2018-08-03T00:57:06.404Z,20.90
2018-08-03T00:59:35.324Z,20.90
2018-08-03T01:02:06.393Z,20.90
2018-08-03T01:04:35.064Z,20.80
2018-08-03T01:07:03.733Z,20.80
2018-08-03T01:09:33.146Z,20.80
2018-08-03T01:12:02.575Z,20.80
2018-08-03T01:14:35.974Z,20.80
2018-08-03T01:17:05.052Z,20.70
2018-08-03T01:19:35.330Z,20.70
2018-08-03T01:22:18.703Z,20.70
2018-08-03T01:24:47.907Z,20.60
2018-08-03T01:27:17.628Z,20.60
2018-08-03T01:29:47.850Z,20.60
2018-08-03T01:32:17.029Z,20.60
2018-08-03T01:34:45.839Z,20.60
2018-08-03T01:37:23.240Z,20.60
2018-08-03T01:39:54.932Z,20.60
2018-08-03T01:42:30.602Z,20.50
2018-08-03T01:45:14.131Z,20.50
2018-08-03T01:47:43.502Z,20.50
2018-08-03T01:50:18.923Z,20.50
2018-08-03T01:52:52.114Z,20.40
2018-08-03T01:55:37.432Z,20.40
2018-08-03T01:58:17.755Z,20.40
2018-08-03T02:00:47.876Z,20.40
2018-08-03T02:03:31.919Z,20.40
2018-08-03T02:06:02.462Z,20.40
2018-08-03T02:08:34.317Z,20.40
2018-08-03T02:11:04.793Z,20.40
2018-08-03T02:13:33.619Z,20.40
2018-08-03T02:16:10.139Z,20.40
2018-08-03T02:18:41.751Z,20.40
2018-08-03T02:21:13.015Z,20.40
2018-08-03T02:24:01.551Z,20.40
2018-08-03T02:26:40.175Z,20.30
2018-08-03T02:29:09.494Z,20.30
2018-08-03T02:31:40.192Z,20.30
2018-08-03T02:36:38.164Z,20.30
2018-08-03T02:39:08.922Z,20.30
2018-08-03T02:41:39.122Z,20.30
2018-08-03T02:44:08.430Z,20.30
2018-08-03T02:46:38.472Z,20.30
2018-08-03T02:49:14.690Z,20.30
2018-08-03T02:51:44.057Z,20.30
2018-08-03T02:54:12.649Z,20.20
2018-08-03T02:56:41.284Z,20.20
2018-08-03T02:59:10.278Z,20.20
2018-08-03T03:01:43.337Z,20.20
2018-08-03T03:04:12.727Z,20.20
2018-08-03T03:06:46.254Z,20.20
2018-08-03T03:09:16.158Z,20.10
2018-08-03T03:11:45.462Z,20.10
2018-08-03T03:14:18.450Z,20.10
2018-08-03T03:16:46.948Z,20.10
2018-08-03T03:19:15.272Z,20.10
2018-08-03T03:21:49.359Z,20.10
2018-08-03T03:24:32.740Z,20.10
2018-08-03T03:27:01.046Z,20.10
2018-08-03T03:29:29.707Z,20.10
2018-08-03T03:31:58.066Z,20.10
2018-08-03T03:34:26.327Z,20.10
2018-08-03T03:36:54.624Z,20.10
2018-08-03T03:39:22.923Z,20.10
2018-08-03T03:41:51.202Z,20.10
2018-08-03T03:44:19.531Z,20.10
2018-08-03T03:46:47.983Z,20.10
2018-08-03T03:49:16.230Z,20.20
2018-08-03T03:51:44.523Z,20.20
2018-08-03T03:54:13.456Z,20.20
2018-08-03T03:56:41.767Z,20.10
2018-08-03T03:59:10.058Z,20.20
2018-08-03T04:01:38.480Z,20.10
2018-08-03T04:04:07.058Z,20.10
2018-08-03T04:06:35.464Z,20.20
2018-08-03T04:09:06.231Z,20.20
2018-08-03T04:11:34.494Z,20.20
2018-08-03T04:14:02.831Z,20.20
2018-08-03T04:16:31.101Z,20.30
2018-08-03T04:18:59.615Z,20.30
2018-08-03T04:21:28.143Z,20.40
2018-08-03T04:26:24.832Z,20.40
2018-08-03T04:28:53.467Z,20.50
2018-08-03T04:31:22.123Z,20.50
2018-08-03T04:34:10.139Z,20.60
2018-08-03T04:36:38.542Z,20.60
2018-08-03T04:39:07.470Z,20.60
2018-08-03T04:41:35.887Z,20.70
2018-08-03T04:44:04.138Z,20.80
2018-08-03T04:46:32.502Z,20.80
2018-08-03T04:49:01.343Z,20.80
2018-08-03T04:51:31.347Z,20.90
2018-08-03T04:54:24.223Z,20.90
2018-08-03T04:56:53.478Z,21.00
2018-08-03T04:59:22.362Z,21.10
2018-08-03T05:01:52.331Z,21.10
2018-08-03T05:04:22.593Z,21.20
2018-08-03T05:06:51.850Z,21.30
2018-08-03T05:09:20.221Z,21.30
2018-08-03T05:11:49.043Z,21.30
2018-08-03T05:14:17.574Z,21.40
2018-08-03T05:16:45.878Z,21.40
2018-08-03T05:19:14.106Z,21.40
2018-08-03T05:21:42.549Z,21.50
2018-08-03T05:24:10.960Z,21.50
2018-08-03T05:26:39.314Z,21.50
2018-08-03T05:29:07.927Z,21.50
2018-08-03T05:31:36.337Z,21.60
2018-08-03T05:34:04.618Z,21.60
2018-08-03T05:36:32.855Z,21.60
2018-08-03T05:39:01.207Z,21.60
2018-08-03T05:41:29.478Z,21.70
2018-08-03T05:43:57.692Z,21.70
2018-08-03T05:46:25.913Z,21.80
2018-08-03T05:48:54.342Z,21.80
2018-08-03T05:51:46.362Z,21.90
2018-08-03T06:38:21.355Z,22.80
2018-08-03T06:41:13.472Z,22.80
2018-08-03T06:43:41.831Z,22.90
2018-08-03T06:46:10.574Z,23.00
2018-08-03T06:48:40.604Z,23.00
2018-08-03T06:51:08.918Z,23.10
2018-08-03T06:53:37.402Z,23.20
2018-08-03T06:56:05.658Z,23.30
2018-08-03T06:58:34.554Z,23.40
2018-08-03T07:01:02.908Z,23.50
2018-08-03T07:03:31.195Z,23.60
2018-08-03T07:05:59.846Z,23.70
2018-08-03T07:08:28.482Z,23.70
2018-08-03T07:10:56.735Z,23.80
2018-08-03T07:13:25.043Z,23.90
2018-08-03T07:15:53.296Z,23.90
2018-08-03T07:18:21.551Z,23.90
2018-08-03T07:20:49.947Z,24.00
2018-08-03T07:23:18.398Z,24.00
2018-08-03T07:25:47.416Z,24.10
2018-08-03T07:33:12.243Z,24.20
2018-08-03T07:38:08.912Z,24.40
2018-08-03T07:40:47.447Z,24.50
2018-08-03T07:43:16.046Z,24.60
2018-08-03T07:45:44.274Z,24.60
2018-08-03T07:48:21.385Z,24.70
2018-08-03T07:50:50.407Z,24.80
2018-08-03T07:53:18.760Z,24.90
2018-08-03T07:55:47.075Z,25.00
2018-08-03T07:58:15.399Z,25.00
2018-08-03T08:08:32.937Z,25.30
2018-08-03T08:11:01.231Z,25.30
2018-08-03T08:15:57.674Z,25.50
2018-08-03T08:20:57.109Z,25.70
2018-08-03T08:23:35.748Z,25.80
2018-08-03T08:26:04.075Z,25.80
2018-08-03T08:28:32.636Z,25.90
2018-08-03T08:31:01.194Z,25.90
2018-08-03T08:33:30.490Z,25.90
2018-08-03T08:35:58.727Z,26.00
2018-08-03T08:38:27.206Z,26.00
2018-08-03T08:43:25.692Z,26.20
2018-08-03T08:45:55.488Z,26.30
2018-08-03T08:48:24.949Z,26.40
2018-08-03T08:50:53.609Z,26.50
2018-08-03T08:53:27.940Z,26.50
2018-08-03T08:55:56.625Z,26.60
2018-08-03T09:00:55.560Z,26.70
2018-08-03T09:03:24.659Z,26.80
2018-08-03T09:05:53.215Z,26.80
2018-08-03T09:08:21.659Z,26.80
2018-08-03T09:10:50.390Z,26.90
2018-08-03T09:13:18.777Z,27.00
2018-08-03T09:15:47.378Z,27.10
2018-08-03T09:18:15.997Z,27.20
2018-08-03T09:20:44.354Z,27.30
2018-08-03T09:23:13.195Z,27.40
2018-08-03T09:25:42.414Z,27.40
2018-08-03T09:28:11.431Z,27.50
2018-08-03T09:30:40.752Z,27.60
2018-08-03T09:33:10.312Z,27.60
2018-08-03T09:35:39.437Z,27.70
2018-08-03T09:38:08.620Z,27.80
2018-08-03T09:40:37.794Z,27.80
2018-08-03T09:43:08.656Z,27.80
2018-08-03T09:45:37.032Z,27.80
2018-08-03T09:48:06.370Z,27.80
2018-08-03T09:50:35.566Z,27.80
2018-08-03T09:53:05.265Z,27.80
2018-08-03T09:55:35.003Z,27.90
2018-08-03T09:58:04.008Z,28.00
2018-08-03T10:00:38.767Z,28.00
2018-08-03T10:03:09.751Z,28.00
2018-08-03T10:05:39.835Z,28.20
2018-08-03T10:08:10.181Z,28.20
2018-08-03T10:10:40.813Z,28.20
2018-08-03T10:13:10.425Z,28.30
2018-08-03T10:15:40.575Z,28.30
2018-08-03T10:18:09.102Z,28.30
2018-08-03T10:20:37.359Z,28.20
2018-08-03T10:23:05.979Z,28.20
2018-08-03T10:25:44.445Z,28.10
2018-08-03T10:28:13.176Z,28.10
2018-08-03T10:30:41.662Z,28.10
2018-08-03T10:33:12.503Z,28.10
2018-08-03T10:35:41.541Z,28.10
2018-08-03T10:38:10.087Z,28.20
2018-08-03T10:40:38.538Z,28.30
2018-08-03T10:43:12.953Z,28.40
2018-08-03T10:48:09.668Z,28.70
2018-08-03T10:50:39.126Z,28.70
2018-08-03T10:53:07.665Z,28.90
2018-08-03T10:55:38.104Z,29.00
2018-08-03T10:58:06.951Z,29.00
2018-08-03T11:03:27.990Z,29.00
2018-08-03T11:05:59.619Z,29.00
2018-08-03T11:08:28.123Z,29.00
2018-08-03T11:10:56.486Z,29.10
2018-08-03T11:13:25.058Z,29.10
2018-08-03T11:15:53.395Z,29.10
2018-08-03T11:18:21.937Z,29.20
2018-08-03T11:20:50.315Z,29.20
2018-08-03T11:23:19.051Z,29.30
2018-08-03T11:25:48.675Z,29.30
2018-08-03T11:28:19.811Z,29.40
2018-08-03T11:30:48.723Z,29.50
2018-08-03T11:33:17.063Z,29.60
2018-08-03T11:35:45.310Z,29.70
2018-08-03T11:38:13.779Z,29.80
2018-08-03T11:40:43.618Z,29.90
2018-08-03T11:43:12.658Z,30.00
2018-08-03T11:45:48.413Z,30.10
2018-08-03T11:48:30.758Z,30.10
2018-08-03T11:50:59.303Z,30.10
2018-08-03T11:53:28.536Z,30.10
2018-08-03T11:55:57.036Z,30.10
2018-08-03T11:58:25.379Z,30.10
2018-08-03T12:00:53.686Z,30.10
2018-08-03T12:03:22.110Z,30.20
2018-08-03T12:05:50.418Z,30.20
2018-08-03T12:08:18.734Z,30.20
2018-08-03T12:10:46.926Z,30.30
2018-08-03T12:13:15.392Z,30.30
2018-08-03T12:15:43.594Z,30.20
2018-08-03T12:18:14.091Z,30.10
2018-08-03T12:20:43.942Z,30.10
2018-08-03T12:23:12.366Z,30.10
2018-08-03T12:25:41.255Z,30.10
2018-08-03T12:28:09.602Z,30.10
2018-08-03T12:30:38.534Z,30.10
2018-08-03T12:33:09.278Z,30.00
2018-08-03T12:35:37.795Z,30.00
2018-08-03T12:38:06.433Z,29.90
2018-08-03T12:40:34.719Z,29.80
2018-08-03T12:43:08.320Z,29.80
2018-08-03T12:45:36.631Z,29.80
2018-08-03T12:48:04.926Z,30.00
2018-08-03T12:50:36.055Z,30.10
2018-08-03T12:53:04.519Z,30.10
2018-08-03T12:55:33.500Z,29.90
2018-08-03T12:58:02.270Z,29.80
2018-08-03T13:00:30.686Z,29.70
2018-08-03T13:02:59.262Z,29.60
2018-08-03T13:05:27.611Z,29.60
2018-08-03T13:07:56.504Z,29.70
2018-08-03T13:10:25.328Z,29.70
2018-08-03T13:12:54.068Z,29.70
2018-08-03T13:15:22.749Z,29.70
2018-08-03T13:17:51.894Z,29.70
2018-08-03T13:20:20.272Z,29.70
2018-08-03T13:22:48.790Z,29.60
2018-08-03T13:25:17.076Z,29.50
2018-08-03T13:27:46.064Z,29.60
2018-08-03T13:30:14.304Z,29.60
2018-08-03T13:35:58.654Z,29.50
2018-08-03T13:38:27.049Z,29.50
2018-08-03T13:41:02.227Z,29.50
2018-08-03T13:43:35.708Z,29.40
2018-08-03T13:46:04.050Z,29.40
2018-08-03T13:48:32.388Z,29.40
2018-08-03T13:51:00.830Z,29.50
2018-08-03T13:53:29.797Z,29.50
2018-08-03T13:55:58.276Z,29.50
2018-08-03T13:58:26.583Z,29.50
2018-08-03T14:01:08.898Z,29.50
2018-08-03T14:03:37.471Z,29.50
2018-08-03T14:06:05.979Z,29.50
2018-08-03T14:08:34.530Z,29.60
2018-08-03T14:11:02.889Z,29.60
2018-08-03T14:13:31.262Z,29.50
2018-08-03T14:16:00.459Z,29.40
2018-08-03T14:18:37.735Z,29.30
2018-08-03T14:21:06.379Z,29.20
2018-08-03T14:26:02.907Z,29.20
2018-08-03T14:28:31.295Z,29.20
2018-08-03T14:33:28.294Z,29.20
2018-08-03T14:35:56.888Z,29.10
2018-08-03T14:38:25.319Z,29.20
2018-08-03T14:40:56.958Z,29.20
2018-08-03T14:43:34.967Z,29.30
2018-08-03T14:46:03.558Z,29.40
2018-08-03T14:48:32.031Z,29.40
2018-08-03T14:51:01.870Z,29.50
2018-08-03T14:53:35.851Z,29.50
2018-08-03T14:56:07.146Z,29.50
2018-08-03T14:58:35.951Z,29.50
2018-08-03T15:01:04.840Z,29.40
2018-08-03T15:03:44.901Z,29.50
2018-08-03T15:06:17.710Z,29.80
2018-08-03T15:08:50.004Z,30.90
2018-08-03T15:11:19.071Z,31.90
2018-08-03T15:13:52.705Z,32.90
2018-08-03T15:16:21.233Z,33.50
2018-08-03T15:18:55.646Z,33.70
2018-08-03T15:21:31.562Z,33.90
2018-08-03T15:24:04.046Z,34.20
2018-08-03T15:26:41.413Z,34.30
2018-08-03T15:29:11.958Z,34.40
2018-08-03T15:31:44.632Z,34.50
2018-08-03T15:34:34.833Z,34.80
2018-08-03T15:37:04.197Z,35.20
2018-08-03T15:39:32.665Z,35.40
2018-08-03T15:42:08.043Z,35.80
2018-08-03T15:44:40.446Z,36.10
2018-08-03T15:47:21.691Z,36.40
2018-08-03T15:49:50.355Z,36.70
2018-08-03T15:52:18.721Z,36.80
2018-08-03T15:54:51.289Z,36.90
2018-08-03T15:57:21.731Z,37.10
2018-08-03T15:59:50.333Z,37.20
2018-08-03T16:02:20.555Z,37.30
2018-08-03T16:04:49.795Z,37.40
2018-08-03T16:07:19.210Z,37.30
2018-08-03T16:09:47.889Z,37.40
2018-08-03T16:12:35.414Z,37.40
2018-08-03T16:15:04.269Z,37.50
2018-08-03T16:17:34.378Z,37.50
2018-08-03T16:20:04.097Z,37.50
2018-08-03T16:25:18.890Z,37.30
2018-08-03T16:27:48.688Z,37.20
2018-08-03T16:30:17.912Z,37.20
2018-08-03T16:32:52.139Z,36.70
2018-08-03T16:35:21.443Z,35.70
2018-08-03T16:37:50.877Z,34.50
2018-08-03T16:40:21.624Z,33.60
2018-08-03T16:42:50.533Z,32.80
2018-08-03T16:45:26.144Z,32.10
2018-08-03T16:47:56.272Z,31.60
2018-08-03T16:50:26.073Z,31.20
2018-08-03T16:52:54.452Z,30.90
2018-08-03T16:55:50.449Z,30.60
2018-08-03T16:58:19.607Z,30.40
2018-08-03T17:00:49.398Z,30.10
2018-08-03T17:03:23.635Z,29.90
2018-08-03T17:05:58.467Z,29.60
2018-08-03T17:08:33.321Z,29.30
2018-08-03T17:11:02.826Z,29.10
2018-08-03T17:13:38.338Z,28.90
2018-08-03T17:16:07.651Z,28.80
2018-08-03T17:18:36.403Z,28.60
2018-08-03T17:21:06.500Z,28.40
2018-08-03T17:23:35.351Z,28.20
2018-08-03T17:26:04.879Z,28.10
2018-08-03T17:28:35.833Z,28.00
2018-08-03T17:31:06.584Z,27.90
2018-08-03T17:33:37.603Z,27.80
2018-08-03T17:36:11.009Z,27.70
2018-08-03T17:41:24.467Z,27.50
2018-08-03T17:52:26.372Z,27.20
2018-08-03T17:55:05.240Z,27.10
2018-08-03T17:57:35.389Z,27.00
2018-08-03T18:00:11.202Z,27.00
2018-08-03T18:08:17.623Z,26.80
2018-08-03T18:10:53.351Z,26.80
2018-08-03T18:13:26.412Z,26.70
2018-08-03T18:16:05.794Z,26.70
2018-08-03T18:18:35.178Z,26.60
2018-08-03T18:21:04.194Z,26.60
2018-08-03T18:23:34.901Z,26.50
2018-08-03T18:26:04.606Z,26.40
2018-08-03T18:28:44.382Z,26.40
2018-08-03T18:31:14.752Z,26.30
2018-08-03T18:33:43.843Z,26.20
2018-08-03T18:36:13.682Z,26.10
2018-08-03T18:38:42.381Z,26.00
2018-08-03T18:41:11.642Z,26.00
2018-08-03T18:43:41.115Z,25.90
2018-08-03T18:46:15.947Z,25.90
2018-08-03T18:55:47.897Z,25.50
2018-08-03T18:58:22.950Z,25.40
2018-08-03T19:00:53.688Z,25.40
2018-08-03T19:05:54.623Z,25.30
2018-08-03T19:08:30.334Z,25.30
2018-08-03T19:11:08.175Z,25.20
2018-08-03T19:13:42.086Z,25.20
2018-08-03T19:16:24.969Z,25.10
2018-08-03T19:18:56.577Z,25.10
2018-08-03T19:24:10.346Z,25.00
2018-08-03T19:32:19.270Z,24.90
2018-08-03T19:34:50.588Z,24.90
2018-08-03T19:37:25.829Z,24.90
2018-08-03T19:39:55.153Z,24.80
2018-08-03T19:44:59.010Z,24.80
2018-08-03T19:47:27.754Z,24.80
2018-08-03T19:49:56.152Z,24.70
2018-08-03T19:52:29.012Z,24.80
2018-08-03T19:55:11.755Z,24.80
2018-08-03T19:57:41.281Z,24.70
2018-08-03T20:00:14.723Z,24.70
2018-08-03T20:02:53.496Z,24.60
2018-08-03T20:05:29.624Z,24.70
2018-08-03T20:08:04.479Z,24.60
2018-08-03T20:10:35.305Z,24.60
2018-08-03T20:13:17.750Z,24.50
2018-08-03T20:18:38.999Z,24.50
2018-08-03T20:23:48.626Z,24.40
2018-08-03T20:28:50.516Z,24.40
2018-08-03T20:31:23.032Z,24.40
2018-08-03T20:36:53.582Z,24.40
2018-08-03T20:39:22.730Z,24.30
2018-08-03T20:41:52.252Z,24.30
2018-08-03T20:44:29.103Z,24.30
2018-08-03T20:46:58.093Z,24.30
2018-08-03T20:49:27.401Z,24.20
2018-08-03T20:51:55.775Z,24.20
2018-08-03T20:54:24.648Z,24.20
2018-08-03T20:56:53.070Z,24.10
2018-08-03T20:59:23.228Z,24.10
2018-08-03T21:01:52.922Z,24.10
2018-08-03T21:04:22.975Z,24.20
2018-08-03T21:06:51.950Z,24.10
2018-08-03T21:09:22.021Z,24.10
2018-08-03T21:11:50.987Z,24.10
2018-08-03T21:28:26.395Z,23.90
2018-08-03T21:30:55.284Z,23.80
2018-08-03T21:33:23.889Z,23.80
2018-08-03T21:35:52.256Z,23.80
2018-08-03T21:38:22.951Z,23.80
2018-08-03T21:40:51.297Z,23.70
2018-08-03T21:43:39.306Z,23.70
2018-08-03T21:46:08.497Z,23.70
2018-08-03T21:48:37.073Z,23.60
2018-08-03T21:51:05.767Z,23.60
2018-08-03T21:53:35.075Z,23.60
2018-08-03T21:56:04.311Z,23.60
2018-08-03T22:01:01.380Z,23.50
2018-08-03T22:03:29.978Z,23.50
2018-08-03T22:05:58.461Z,23.50
2018-08-03T22:08:26.798Z,23.50
2018-08-03T22:13:24.098Z,23.40
2018-08-03T22:15:53.107Z,23.40
2018-08-03T22:18:22.412Z,23.40
2018-08-03T22:20:51.003Z,23.40
2018-08-03T22:23:19.693Z,23.40
2018-08-03T22:25:48.127Z,23.40
2018-08-03T22:28:17.778Z,23.30
2018-08-03T22:30:46.239Z,23.30
2018-08-03T22:33:14.547Z,23.30
2018-08-03T22:35:46.489Z,23.30
2018-08-03T22:38:15.070Z,23.30
2018-08-03T22:40:43.467Z,23.20
2018-08-03T22:43:11.826Z,23.20
2018-08-03T22:45:40.275Z,23.20
2018-08-03T22:48:10.777Z,23.20
2018-08-03T22:50:39.083Z,23.10
2018-08-03T22:53:07.501Z,23.10
2018-08-03T22:55:36.139Z,23.00
2018-08-03T22:58:04.593Z,23.00
2018-08-03T23:00:33.652Z,23.00
2018-08-03T23:03:02.324Z,22.90
2018-08-03T23:05:30.656Z,22.90
2018-08-03T23:07:59.885Z,22.80
2018-08-03T23:10:28.278Z,22.80
2018-08-03T23:12:56.656Z,22.80
2018-08-03T23:15:25.303Z,22.80
2018-08-03T23:17:53.980Z,22.80
2018-08-03T23:22:50.417Z,22.80
2018-08-03T23:25:18.747Z,22.70
2018-08-03T23:27:47.274Z,22.70
2018-08-03T23:30:15.687Z,22.70
2018-08-03T23:32:44.176Z,22.70
2018-08-03T23:35:23.333Z,22.80
2018-08-03T23:37:51.674Z,22.70
2018-08-03T23:40:20.147Z,22.70
2018-08-03T23:42:48.595Z,22.70
2018-08-03T23:45:17.138Z,22.70
2018-08-03T23:47:51.931Z,22.70
